Time;durP1;ratioP1;P1;durP2;ratioP2;P2;SDS_P1;SDS_P2;PMS_P1;PMS_P2;Temp;Humidity;BMP_temperature;BMP_pressure;BME280_temperature;BME280_humidity;BME280_pressure;Samples;Min_cycle;Max_cycle;Signal;HPM_P1;HPM_P2
2024/01/14 00:00:10;;;;;;;10.50;4.60;;;;;;;3.67;67.80;100658.09;4957241;28;98244;-56
2024/01/14 00:02:37;;;;;;;8.53;4.77;;;;;;;3.67;67.82;100654.59;4954512;28;99050;-56
2024/01/14 00:05:02;;;;;;;5.47;3.97;;;;;;;3.65;67.92;100660.53;4955944;28;96720;-56
2024/01/14 00:07:28;;;;;;;7.03;4.07;;;;;;;3.68;68.00;100667.06;4951979;28;96989;-56
2024/01/14 00:09:53;;;;;;;7.50;4.50;;;;;;;3.67;67.91;100662.78;4953614;28;96931;-56
2024/01/14 00:12:18;;;;;;;9.23;4.57;;;;;;;3.64;67.93;100656.28;4951340;28;98619;-56
2024/01/14 00:14:44;;;;;;;6.10;4.00;;;;;;;3.61;68.01;100662.72;4947226;28;96698;-57
2024/01/14 00:17:10;;;;;;;10.40;4.10;;;;;;;3.61;68.04;100656.47;4954672;28;97099;-56
2024/01/14 00:19:36;;;;;;;5.97;3.80;;;;;;;3.60;68.34;100655.72;4951579;28;98953;-56
2024/01/14 00:22:01;;;;;;;12.97;4.20;;;;;;;3.61;68.47;100659.97;4954195;28;97087;-56
2024/01/14 00:24:27;;;;;;;7.07;3.27;;;;;;;3.64;68.40;100663.75;4952804;28;97074;-56
2024/01/14 00:26:52;;;;;;;6.33;2.90;;;;;;;3.62;68.33;100652.53;4953079;28;97229;-56
2024/01/14 00:29:17;;;;;;;3.70;2.20;;;;;;;3.63;68.46;100648.56;4954817;28;111275;-56
2024/01/14 00:31:42;;;;;;;6.87;2.53;;;;;;;3.66;68.35;100644.88;4954165;28;97738;-56
2024/01/14 00:34:08;;;;;;;5.20;2.10;;;;;;;3.68;68.23;100640.47;4951527;28;96766;-56
2024/01/14 00:36:42;;;;;;;3.77;2.00;;;;;;;3.69;67.96;100641.19;4953571;28;96903;-56
2024/01/14 00:39:07;;;;;;;3.20;1.57;;;;;;;3.67;67.97;100638.94;4953139;28;96789;-56
2024/01/14 00:41:33;;;;;;;3.07;1.87;;;;;;;3.66;68.25;100639.41;4949271;28;98302;-56
2024/01/14 00:44:00;;;;;;;4.70;1.60;;;;;;;3.67;68.01;100635.44;4953401;28;97392;-56
2024/01/14 00:46:25;;;;;;;2.93;1.43;;;;;;;3.68;68.00;100632.25;4951946;28;96899;-55
2024/01/14 00:48:51;;;;;;;5.67;1.93;;;;;;;3.68;68.01;100626.78;4955474;28;97314;-56
2024/01/14 00:51:16;;;;;;;5.13;1.90;;;;;;;3.70;68.10;100632.53;4953884;28;109977;-56
2024/01/14 00:53:41;;;;;;;3.80;1.50;;;;;;;3.71;67.94;100636.78;4951236;28;96858;-57
2024/01/14 00:56:07;;;;;;;5.07;2.10;;;;;;;3.70;68.01;100637.25;4947514;28;101117;-56
2024/01/14 00:58:32;;;;;;;4.23;1.77;;;;;;;3.68;68.00;100635.00;4953535;28;97488;-56
2024/01/14 01:00:57;;;;;;;7.50;1.97;;;;;;;3.64;68.16;100633.66;4952195;28;102480;-56
2024/01/14 01:03:22;;;;;;;5.10;1.20;;;;;;;3.52;67.46;100640.13;4952042;28;97026;-57
2024/01/14 01:05:48;;;;;;;2.60;0.80;;;;;;;3.36;67.46;100648.78;4954125;28;97061;-56
2024/01/14 01:08:13;;;;;;;3.23;0.83;;;;;;;3.09;67.34;100645.00;4952192;28;109803;-56
2024/01/14 01:10:38;;;;;;;3.57;0.60;;;;;;;2.90;67.13;100646.28;4949993;28;107331;-55
2024/01/14 01:13:04;;;;;;;1.20;0.90;;;;;;;2.77;67.77;100640.28;4952892;28;97192;-54
2024/01/14 01:15:29;;;;;;;3.57;0.60;;;;;;;2.70;67.79;100650.81;4956125;28;97331;-54
2024/01/14 01:17:55;;;;;;;1.40;0.40;;;;;;;2.66;67.83;100647.50;4955593;28;109333;-54
2024/01/14 01:20:20;;;;;;;3.33;0.50;;;;;;;2.67;68.15;100651.72;4956042;28;96805;-54
2024/01/14 01:22:45;;;;;;;2.53;0.40;;;;;;;2.65;68.03;100630.34;4951828;28;101551;-54
2024/01/14 01:25:10;;;;;;;4.73;1.03;;;;;;;2.66;68.10;100628.38;4950731;28;97437;-54
2024/01/14 01:27:36;;;;;;;0.60;0.40;;;;;;;2.61;68.01;100610.63;4955060;28;106183;-53
2024/01/14 01:30:02;;;;;;;1.47;0.57;;;;;;;2.60;68.02;100600.16;4957375;28;96840;-54
2024/01/14 01:32:28;;;;;;;1.00;0.30;;;;;;;2.63;67.98;100610.16;4954173;28;97150;-54
2024/01/14 01:34:54;;;;;;;1.63;0.70;;;;;;;2.68;67.99;100607.53;4953831;28;97300;-54
2024/01/14 01:37:19;;;;;;;2.20;0.60;;;;;;;2.72;67.75;100619.09;4952313;28;97391;-54
2024/01/14 01:39:44;;;;;;;1.80;0.40;;;;;;;2.77;67.67;100620.44;4952982;28;98934;-54
2024/01/14 01:42:10;;;;;;;1.57;0.50;;;;;;;2.77;67.85;100618.44;4954906;28;97457;-54
2024/01/14 01:44:35;;;;;;;2.40;0.60;;;;;;;2.78;67.75;100622.69;4953214;28;96700;-54
2024/01/14 01:47:01;;;;;;;2.93;0.80;;;;;;;2.79;67.61;100617.97;4950208;28;97974;-54
2024/01/14 01:49:27;;;;;;;1.10;0.40;;;;;;;2.82;67.91;100617.03;4955163;28;97220;-54
2024/01/14 01:51:53;;;;;;;2.63;0.60;;;;;;;2.84;67.80;100607.16;4949744;28;97001;-55
2024/01/14 01:54:22;;;;;;;1.20;0.63;;;;;;;2.89;68.11;100619.44;4952832;28;97189;-55
2024/01/14 01:56:50;;;;;;;1.97;0.50;;;;;;;2.90;67.82;100608.03;4951207;28;98531;-55
2024/01/14 01:59:15;;;;;;;1.93;0.70;;;;;;;2.91;67.96;100612.28;4953558;28;97185;-54
2024/01/14 02:01:43;;;;;;;3.13;0.83;;;;;;;2.94;67.45;100607.88;4954478;28;96801;-54
2024/01/14 02:04:08;;;;;;;1.57;0.90;;;;;;;2.94;67.80;100616.84;4953404;28;96944;-54
2024/01/14 02:06:37;;;;;;;1.80;0.63;;;;;;;2.97;67.75;100601.47;4952107;28;97284;-54
2024/01/14 02:09:04;;;;;;;1.00;0.80;;;;;;;2.97;67.54;100609.66;4953621;28;97201;-54
2024/01/14 02:11:29;;;;;;;1.20;0.67;;;;;;;2.99;67.82;100597.06;4951809;28;97183;-54
2024/01/14 02:13:55;;;;;;;0.67;0.57;;;;;;;3.03;67.72;100591.44;4952364;28;97093;-54
2024/01/14 02:16:20;;;;;;;2.77;0.50;;;;;;;3.02;67.79;100589.91;4950792;28;97190;-54
2024/01/14 02:18:45;;;;;;;1.80;0.70;;;;;;;3.03;67.67;100592.16;4951030;28;97074;-54
2024/01/14 02:21:17;;;;;;;3.20;0.87;;;;;;;3.06;67.83;100587.75;4953841;28;97108;-54
2024/01/14 02:23:49;;;;;;;1.40;0.70;;;;;;;3.06;67.66;100585.03;4950023;28;96825;-54
2024/01/14 02:26:14;;;;;;;2.07;1.10;;;;;;;3.07;67.43;100589.28;4955067;28;97611;-55
2024/01/14 02:28:41;;;;;;;3.17;0.87;;;;;;;3.09;67.66;100589.56;4953850;28;97738;-54
2024/01/14 02:31:07;;;;;;;0.90;0.80;;;;;;;3.13;67.70;100592.88;4957458;28;97000;-55
2024/01/14 02:33:33;;;;;;;1.63;0.90;;;;;;;3.15;67.64;100584.97;4953199;28;97544;-54
2024/01/14 02:35:58;;;;;;;3.70;1.20;;;;;;;3.16;67.64;100586.50;4955067;28;113084;-55
2024/01/14 02:38:23;;;;;;;2.83;1.07;;;;;;;3.15;67.48;100585.72;4954815;28;107859;-55
2024/01/14 02:40:49;;;;;;;1.20;0.90;;;;;;;3.16;67.45;100576.28;4957346;28;97303;-55
2024/01/14 02:43:14;;;;;;;5.70;0.90;;;;;;;3.17;67.58;100577.03;4958375;28;96711;-55
2024/01/14 02:45:40;;;;;;;2.07;0.97;;;;;;;3.15;67.57;100565.81;4955280;28;98846;-54
2024/01/14 02:48:06;;;;;;;7.87;1.20;;;;;;;3.14;67.90;100564.34;4955513;28;97180;-55
2024/01/14 02:50:31;;;;;;;1.80;0.90;;;;;;;3.13;67.73;100557.34;4960333;28;96769;-54
2024/01/14 02:52:56;;;;;;;3.33;1.10;;;;;;;3.12;67.84;100569.47;4956560;28;97287;-55
2024/01/14 02:55:22;;;;;;;1.20;1.10;;;;;;;3.13;67.86;100562.81;4956469;28;101769;-55
2024/01/14 02:57:48;;;;;;;2.57;1.10;;;;;;;3.15;67.78;100571.28;4955407;28;103774;-55
2024/01/14 03:00:13;;;;;;;1.30;1.20;;;;;;;3.17;67.96;100561.41;4954748;28;97002;-55
2024/01/14 03:02:39;;;;;;;2.60;1.13;;;;;;;3.19;67.69;100558.97;4954704;28;97141;-56
2024/01/14 03:05:05;;;;;;;2.70;1.30;;;;;;;3.19;67.85;100560.94;4953826;28;97327;-55
2024/01/14 03:07:30;;;;;;;1.10;0.87;;;;;;;3.20;68.25;100554.25;4955089;28;97506;-55
2024/01/14 03:09:55;;;;;;;0.90;0.70;;;;;;;3.20;67.75;100546.06;4951545;28;101996;-55
2024/01/14 03:12:21;;;;;;;1.70;1.10;;;;;;;3.21;68.09;100555.75;4958004;28;97254;-55
2024/01/14 03:14:46;;;;;;;3.37;1.20;;;;;;;3.19;68.15;100542.56;4958348;28;105427;-55
2024/01/14 03:17:11;;;;;;;4.70;1.27;;;;;;;3.20;67.62;100551.53;4954340;28;97778;-55
2024/01/14 03:19:36;;;;;;;4.00;1.30;;;;;;;3.22;67.99;100549.06;4952235;28;100143;-55
2024/01/14 03:22:02;;;;;;;2.67;0.97;;;;;;;3.23;68.15;100542.38;4952962;28;103166;-55
2024/01/14 03:24:27;;;;;;;2.17;1.30;;;;;;;3.25;67.91;100542.66;4953495;28;97629;-55
2024/01/14 03:26:53;;;;;;;2.93;1.23;;;;;;;3.22;67.94;100549.84;4952271;28;98300;-55
2024/01/14 03:29:18;;;;;;;3.40;1.30;;;;;;;3.25;67.69;100548.13;4951776;28;97376;-56
2024/01/14 03:31:44;;;;;;;1.90;1.10;;;;;;;3.28;67.80;100552.66;4950373;28;96815;-56
2024/01/14 03:34:09;;;;;;;1.00;0.70;;;;;;;3.31;67.60;100559.94;4951428;28;99859;-55
2024/01/14 03:36:34;;;;;;;1.97;1.33;;;;;;;3.28;67.82;100547.19;4952393;28;97315;-55
2024/01/14 03:39:00;;;;;;;5.90;1.57;;;;;;;3.27;68.25;100551.16;4952706;28;97539;-57
2024/01/14 03:41:25;;;;;;;4.00;1.30;;;;;;;3.27;68.13;100548.44;4954529;28;96980;-56
2024/01/14 03:43:51;;;;;;;3.13;1.30;;;;;;;3.27;67.86;100548.44;4953846;28;97858;-55
2024/01/14 03:46:17;;;;;;;2.53;1.00;;;;;;;3.27;67.95;100546.44;4954199;28;97212;-55
2024/01/14 03:48:43;;;;;;;1.23;0.93;;;;;;;3.26;67.79;100542.22;4956392;28;97180;-56
2024/01/14 03:51:08;;;;;;;2.27;1.27;;;;;;;3.25;68.06;100543.41;4953263;28;97053;-55
2024/01/14 03:53:33;;;;;;;2.67;1.07;;;;;;;3.26;68.04;100530.50;4954333;28;105290;-55
2024/01/14 03:55:59;;;;;;;5.07;1.23;;;;;;;3.24;67.85;100547.38;4955487;28;97731;-55
2024/01/14 03:58:24;;;;;;;2.10;1.10;;;;;;;3.17;67.73;100550.47;4953629;28;97139;-55
2024/01/14 04:00:49;;;;;;;2.87;0.87;;;;;;;3.16;67.92;100540.00;4955738;28;97009;-55
2024/01/14 04:03:14;;;;;;;1.80;1.00;;;;;;;3.13;68.05;100544.44;4956846;28;97119;-55
2024/01/14 04:05:40;;;;;;;5.37;1.10;;;;;;;3.14;67.89;100543.19;4956335;28;109693;-56
2024/01/14 04:08:05;;;;;;;1.33;0.93;;;;;;;3.13;68.11;100544.44;4953650;28;96878;-55
2024/01/14 04:10:30;;;;;;;5.03;1.57;;;;;;;3.16;67.86;100531.81;4955889;28;98565;-56
2024/01/14 04:12:56;;;;;;;3.77;1.33;;;;;;;3.13;67.98;100538.22;4953154;28;97775;-55
2024/01/14 04:15:24;;;;;;;3.57;1.03;;;;;;;3.13;67.98;100525.31;4957048;28;97631;-55
2024/01/14 04:17:50;;;;;;;7.47;1.23;;;;;;;3.16;68.33;100537.28;4952502;28;97071;-55
2024/01/14 04:20:15;;;;;;;3.47;1.20;;;;;;;3.16;67.94;100535.28;4951186;28;99609;-55
2024/01/14 04:22:41;;;;;;;2.80;1.30;;;;;;;3.17;68.12;100536.81;4954726;28;98591;-55
2024/01/14 04:25:07;;;;;;;5.90;1.30;;;;;;;3.17;68.00;100542.28;4949957;28;98132;-55
2024/01/14 04:27:32;;;;;;;2.90;1.20;;;;;;;3.14;67.63;100531.53;4953320;28;97408;-55
2024/01/14 04:29:57;;;;;;;2.87;1.20;;;;;;;3.15;67.91;100538.50;4951109;28;96655;-55
2024/01/14 04:32:23;;;;;;;8.20;1.70;;;;;;;3.15;68.05;100535.75;4952509;28;98501;-55
2024/01/14 04:34:48;;;;;;;6.43;1.50;;;;;;;3.15;68.17;100514.66;4952758;28;112224;-55
2024/01/14 04:37:13;;;;;;;10.27;1.60;;;;;;;3.13;68.47;100514.38;4952422;28;99224;-55
2024/01/14 04:39:39;;;;;;;5.10;1.13;;;;;;;3.15;68.18;100519.34;4951533;28;97261;-55
2024/01/14 04:42:04;;;;;;;7.80;2.20;;;;;;;3.15;68.08;100519.34;4952609;28;104032;-56
2024/01/14 04:44:29;;;;;;;10.17;2.00;;;;;;;3.14;67.93;100520.59;4952496;28;97333;-55
2024/01/14 04:46:55;;;;;;;7.13;1.37;;;;;;;3.14;68.32;100521.34;4952594;28;101541;-55
2024/01/14 04:49:20;;;;;;;2.83;1.10;;;;;;;3.16;67.94;100518.88;4953320;28;97161;-54
2024/01/14 04:51:45;;;;;;;4.60;1.30;;;;;;;3.17;67.85;100509.47;4954683;28;108371;-56
2024/01/14 04:54:11;;;;;;;6.10;1.40;;;;;;;3.20;67.94;100507.78;4951320;28;97130;-55
2024/01/14 04:56:37;;;;;;;7.33;1.70;;;;;;;3.17;67.70;100506.75;4952035;28;96640;-55
2024/01/14 04:59:02;;;;;;;3.70;1.40;;;;;;;3.18;67.61;100499.31;4950938;28;97052;-55
2024/01/14 05:01:27;;;;;;;9.40;1.50;;;;;;;3.21;67.89;100506.53;4949990;28;97897;-55
2024/01/14 05:03:54;;;;;;;4.20;1.40;;;;;;;3.22;68.13;100502.59;4952732;28;96822;-55
2024/01/14 05:06:19;;;;;;;2.40;1.27;;;;;;;3.24;67.78;100505.63;4954822;28;96961;-56
2024/01/14 05:08:45;;;;;;;6.03;1.30;;;;;;;3.23;67.62;100501.38;4951544;28;97245;-54
2024/01/14 05:11:10;;;;;;;7.47;1.10;;;;;;;3.21;67.69;100498.34;4952264;28;97825;-56
2024/01/14 05:13:35;;;;;;;4.07;1.10;;;;;;;3.20;67.87;100494.88;4954037;28;96889;-55
2024/01/14 05:16:01;;;;;;;4.40;1.07;;;;;;;3.18;67.76;100499.31;4953973;28;96795;-55
2024/01/14 05:18:26;;;;;;;1.80;1.13;;;;;;;3.16;67.91;100512.69;4953792;28;97412;-56
2024/01/14 05:20:52;;;;;;;5.23;1.40;;;;;;;3.15;68.04;100509.19;4951964;28;97244;-56
2024/01/14 05:23:18;;;;;;;8.90;1.73;;;;;;;3.15;67.58;100511.91;4951924;28;97135;-55
2024/01/14 05:25:43;;;;;;;7.70;1.20;;;;;;;3.11;67.81;100508.63;4954508;28;96841;-56
2024/01/14 05:28:08;;;;;;;6.07;1.53;;;;;;;3.10;67.77;100506.34;4953348;28;96970;-56
2024/01/14 05:30:34;;;;;;;4.73;1.57;;;;;;;3.11;67.45;100502.38;4952581;28;96700;-56
2024/01/14 05:32:59;;;;;;;6.67;1.67;;;;;;;3.07;68.05;100499.84;4950155;28;103620;-55
2024/01/14 05:35:24;;;;;;;4.10;1.30;;;;;;;3.06;68.07;100503.78;4953075;28;96933;-56
2024/01/14 05:37:50;;;;;;;3.70;1.43;;;;;;;3.06;67.88;100503.78;4949712;28;107148;-56
2024/01/14 05:40:15;;;;;;;5.43;1.50;;;;;;;3.06;67.86;100513.97;4952977;28;97155;-55
2024/01/14 05:42:42;;;;;;;17.20;2.30;;;;;;;3.07;67.93;100505.31;4947983;28;96913;-56
2024/01/14 05:45:10;;;;;;;2.83;1.27;;;;;;;3.05;67.93;100505.00;4950242;28;96986;-56
2024/01/14 05:47:35;;;;;;;9.73;1.43;;;;;;;3.06;67.92;100505.75;4951325;28;96725;-56
2024/01/14 05:50:01;;;;;;;3.97;1.43;;;;;;;3.03;67.84;100501.97;4951880;28;96777;-56
2024/01/14 05:52:26;;;;;;;7.23;1.53;;;;;;;3.06;67.88;100498.31;4952613;28;98346;-56
2024/01/14 05:54:51;;;;;;;7.33;1.77;;;;;;;3.09;67.95;100502.09;4950480;28;105677;-56
2024/01/14 05:57:17;;;;;;;5.00;1.50;;;;;;;3.09;67.60;100499.38;4955234;28;103667;-56
2024/01/14 05:59:42;;;;;;;5.50;1.33;;;;;;;3.10;68.01;100503.59;4951604;28;97321;-56
2024/01/14 06:02:09;;;;;;;5.83;1.60;;;;;;;3.10;67.34;100500.88;4956383;28;96947;-56
2024/01/14 06:04:34;;;;;;;11.03;1.73;;;;;;;3.09;67.81;100502.09;4954704;28;97026;-56
2024/01/14 06:06:59;;;;;;;9.03;1.73;;;;;;;3.07;67.97;100499.84;4957010;28;97262;-56
2024/01/14 06:09:25;;;;;;;5.73;1.57;;;;;;;3.07;67.54;100499.84;4958566;28;100906;-56
2024/01/14 06:11:51;;;;;;;6.97;1.17;;;;;;;3.07;67.59;100499.84;4954168;28;97111;-56
2024/01/14 06:14:16;;;;;;;5.50;1.30;;;;;;;3.05;67.55;100496.81;4957274;28;96722;-57
2024/01/14 06:16:41;;;;;;;5.33;1.70;;;;;;;3.04;67.36;100500.00;4958376;28;96813;-56
2024/01/14 06:19:07;;;;;;;5.83;1.40;;;;;;;3.02;67.67;100503.22;4953203;28;99850;-57
2024/01/14 06:21:32;;;;;;;7.93;1.80;;;;;;;2.99;67.78;100495.19;4955164;28;100020;-56
2024/01/14 06:23:57;;;;;;;9.53;1.63;;;;;;;2.99;67.67;100495.19;4955645;28;99050;-56
2024/01/14 06:26:23;;;;;;;3.87;1.30;;;;;;;3.00;67.67;100488.50;4952853;28;96730;-57
2024/01/14 06:28:48;;;;;;;7.70;1.43;;;;;;;2.99;67.76;100493.22;4957345;28;105391;-56
2024/01/14 06:31:13;;;;;;;14.90;2.27;;;;;;;3.01;67.72;100485.31;4956893;28;97891;-56
2024/01/14 06:33:39;;;;;;;4.70;1.50;;;;;;;3.02;67.89;100489.56;4953649;28;98109;-57
2024/01/14 06:36:07;;;;;;;5.00;1.60;;;;;;;3.01;67.76;100490.03;4956385;28;96921;-56
2024/01/14 06:38:34;;;;;;;4.03;1.50;;;;;;;3.01;67.84;100484.56;4954073;28;97095;-56
2024/01/14 06:41:00;;;;;;;8.70;1.70;;;;;;;3.01;67.77;100490.78;4957311;28;97307;-56
2024/01/14 06:43:25;;;;;;;7.70;1.40;;;;;;;3.01;67.37;100481.84;4957584;28;96978;-56
2024/01/14 06:45:50;;;;;;;4.50;1.30;;;;;;;3.01;67.65;100481.84;4956938;28;96882;-57
2024/01/14 06:48:15;;;;;;;6.33;1.60;;;;;;;2.95;67.58;100481.72;4954436;28;104588;-57
2024/01/14 06:50:41;;;;;;;5.53;1.30;;;;;;;2.97;67.51;100481.25;4956776;28;108697;-56
2024/01/14 06:53:06;;;;;;;7.00;1.70;;;;;;;2.97;67.65;100476.53;4955231;28;97033;-56
2024/01/14 06:55:31;;;;;;;10.07;1.60;;;;;;;2.96;67.73;100477.00;4955213;28;97012;-56
2024/01/14 06:57:57;;;;;;;6.53;1.33;;;;;;;2.99;67.87;100487.00;4907200;28;107046;-57
2024/01/14 07:00:22;;;;;;;3.60;1.67;;;;;;;2.98;67.89;100474.56;4887207;28;102130;-57
2024/01/14 07:02:47;;;;;;;5.83;1.90;;;;;;;2.96;67.62;100474.28;4955816;28;96749;-56
2024/01/14 07:05:13;;;;;;;3.47;1.47;;;;;;;2.96;67.56;100479.75;4950303;28;107391;-56
2024/01/14 07:07:39;;;;;;;4.73;1.47;;;;;;;2.94;67.51;100479.47;4956489;28;97889;-56
2024/01/14 07:10:04;;;;;;;8.23;2.20;;;;;;;2.95;67.51;100481.72;4957618;28;97057;-56
2024/01/14 07:12:30;;;;;;;7.40;2.83;;;;;;;2.95;67.36;100483.69;4960674;28;97185;-56
2024/01/14 07:14:55;;;;;;;4.03;1.73;;;;;;;2.93;67.13;100480.66;4954026;28;96868;-56
2024/01/14 07:17:21;;;;;;;4.67;1.77;;;;;;;2.91;67.75;100478.41;4955270;28;97478;-57
2024/01/14 07:19:47;;;;;;;4.53;1.77;;;;;;;2.86;67.45;100481.78;4958751;28;97118;-56
2024/01/14 07:22:12;;;;;;;7.60;2.50;;;;;;;2.90;67.43;100487.09;4951645;28;96751;-56
2024/01/14 07:24:37;;;;;;;7.83;2.40;;;;;;;2.90;67.33;100484.34;4958724;28;97169;-56
2024/01/14 07:27:04;;;;;;;5.47;1.93;;;;;;;2.90;67.41;100498.00;4950594;28;97975;-56
2024/01/14 07:29:29;;;;;;;8.20;2.00;;;;;;;2.89;67.63;100491.78;4957001;28;97130;-56
2024/01/14 07:31:55;;;;;;;7.23;2.00;;;;;;;2.86;67.41;100484.50;4960045;28;97060;-56
2024/01/14 07:34:20;;;;;;;7.00;1.70;;;;;;;2.87;67.38;100488.00;4957943;28;97089;-56
2024/01/14 07:36:46;;;;;;;5.23;2.13;;;;;;;2.86;67.58;100475.56;4960417;28;97035;-56
2024/01/14 07:39:12;;;;;;;5.43;1.60;;;;;;;2.86;67.40;100478.28;4958896;28;97119;-56
2024/01/14 07:41:38;;;;;;;5.43;1.93;;;;;;;2.87;67.70;100490.75;4961729;28;96928;-56
2024/01/14 07:44:05;;;;;;;9.60;1.80;;;;;;;2.86;67.37;100479.06;4953954;28;97531;-56
2024/01/14 07:46:30;;;;;;;5.80;1.67;;;;;;;2.88;67.67;100481.31;4953128;28;97330;-56
2024/01/14 07:48:56;;;;;;;7.23;1.77;;;;;;;2.86;67.47;100475.56;4955745;28;97286;-56
2024/01/14 07:51:21;;;;;;;10.23;1.50;;;;;;;2.85;67.48;100479.53;4959366;28;96953;-56
2024/01/14 07:53:46;;;;;;;5.80;1.60;;;;;;;2.85;67.50;100482.25;4955236;28;103712;-56
2024/01/14 07:56:11;;;;;;;4.00;1.77;;;;;;;2.85;67.50;100488.47;4958037;28;110105;-57
2024/01/14 07:58:37;;;;;;;5.43;1.67;;;;;;;2.83;67.42;100473.78;4955292;28;97211;-56
2024/01/14 08:01:02;;;;;;;6.63;1.93;;;;;;;2.80;67.04;100469.25;4956811;28;97061;-57
2024/01/14 08:03:28;;;;;;;8.60;2.17;;;;;;;2.77;67.48;100487.31;4951128;28;97071;-56
2024/01/14 08:05:54;;;;;;;10.30;2.47;;;;;;;2.74;67.34;100476.56;4952803;28;97392;-56
2024/01/14 08:08:20;;;;;;;4.00;2.07;;;;;;;2.69;67.17;100486.16;4953691;28;97063;-56
2024/01/14 08:10:45;;;;;;;7.57;2.13;;;;;;;2.68;67.28;100483.91;4954050;28;97144;-56
2024/01/14 08:13:10;;;;;;;10.50;1.90;;;;;;;2.66;67.55;100491.81;4952117;28;96945;-56
2024/01/14 08:15:36;;;;;;;9.90;2.40;;;;;;;2.70;67.41;100489.66;4956652;28;108699;-56
2024/01/14 08:18:01;;;;;;;5.13;2.00;;;;;;;2.71;67.71;100491.16;4951512;28;102527;-56
2024/01/14 08:20:26;;;;;;;7.30;2.00;;;;;;;2.76;68.00;100495.97;4959219;28;97126;-56
2024/01/14 08:22:53;;;;;;;7.87;2.10;;;;;;;2.78;67.99;100490.81;4952736;28;96905;-56
2024/01/14 08:25:19;;;;;;;3.03;1.77;;;;;;;2.78;67.76;100491.56;4951985;28;97327;-56
2024/01/14 08:27:44;;;;;;;5.50;2.37;;;;;;;2.79;67.64;100487.59;4952041;28;97811;-56
2024/01/14 08:30:10;;;;;;;6.63;2.03;;;;;;;2.82;67.58;100483.19;4950481;28;96925;-56
2024/01/14 08:32:36;;;;;;;11.97;2.30;;;;;;;2.89;67.36;100482.84;4963261;28;97062;-56
2024/01/14 08:35:01;;;;;;;2.03;1.63;;;;;;;2.93;67.44;100486.13;4952658;28;97317;-56
2024/01/14 08:37:29;;;;;;;4.93;1.70;;;;;;;2.97;67.39;100489.44;4949430;28;97254;-56
2024/01/14 08:39:55;;;;;;;5.33;1.90;;;;;;;3.01;67.72;100488.03;4948536;28;97100;-56
2024/01/14 08:42:20;;;;;;;8.50;2.40;;;;;;;3.04;67.53;100483.63;4954413;28;96802;-57
2024/01/14 08:44:47;;;;;;;5.40;2.23;;;;;;;3.07;67.48;100480.72;4955229;28;97452;-56
2024/01/14 08:47:13;;;;;;;5.50;2.70;;;;;;;3.08;67.23;100484.94;4949498;28;98441;-56
2024/01/14 08:49:40;;;;;;;7.50;2.47;;;;;;;3.07;67.32;100482.69;4957714;28;96837;-56
2024/01/14 08:52:07;;;;;;;6.83;2.27;;;;;;;3.07;67.66;100478.00;4953646;28;96952;-56
2024/01/14 08:54:36;;;;;;;6.70;2.43;;;;;;;3.07;67.58;100480.72;4950134;28;97458;-56
2024/01/14 08:57:01;;;;;;;4.43;2.47;;;;;;;3.11;67.59;100484.03;4947941;28;97282;-56
2024/01/14 08:59:27;;;;;;;5.63;2.27;;;;;;;3.14;67.38;100482.34;4950682;28;96961;-56
2024/01/14 09:01:52;;;;;;;7.17;2.80;;;;;;;3.13;67.35;100480.81;4954849;28;97383;-56
2024/01/14 09:04:18;;;;;;;7.50;3.10;;;;;;;3.14;67.75;100490.53;4953369;28;97160;-56
2024/01/14 09:06:43;;;;;;;6.80;2.70;;;;;;;3.15;67.12;100484.59;4950955;28;96809;-55
2024/01/14 09:09:08;;;;;;;10.23;2.70;;;;;;;3.17;67.51;100481.38;4952571;28;97274;-56
2024/01/14 09:11:34;;;;;;;10.00;2.97;;;;;;;3.19;67.45;100481.66;4953278;28;97236;-56
2024/01/14 09:13:59;;;;;;;5.53;2.73;;;;;;;3.22;67.53;100481.50;4953840;28;105736;-56
2024/01/14 09:16:25;;;;;;;5.47;2.87;;;;;;;3.25;67.20;100477.03;4951895;28;98449;-56
2024/01/14 09:18:50;;;;;;;7.63;3.17;;;;;;;3.24;67.13;100476.31;4952594;28;97070;-56
2024/01/14 09:21:16;;;;;;;5.23;2.40;;;;;;;3.21;66.95;100468.28;4948415;28;101769;-56
2024/01/14 09:23:41;;;;;;;6.57;2.73;;;;;;;3.30;67.39;100468.97;4953885;28;97342;-56
2024/01/14 09:26:07;;;;;;;5.57;2.30;;;;;;;3.38;67.38;100469.31;4958969;28;106679;-57
2024/01/14 09:28:32;;;;;;;3.13;2.60;;;;;;;3.41;67.53;100467.63;4957811;28;96959;-56
2024/01/14 09:30:58;;;;;;;5.60;2.40;;;;;;;3.46;67.19;100473.22;4960791;28;97081;-56
2024/01/14 09:33:23;;;;;;;6.33;2.20;;;;;;;3.49;67.35;100472.25;4949414;28;97273;-56
2024/01/14 09:35:48;;;;;;;3.73;2.10;;;;;;;3.54;67.38;100463.41;4951878;28;110750;-56
2024/01/14 09:38:13;;;;;;;6.07;2.57;;;;;;;3.59;67.15;100461.97;4950379;28;97484;-56
2024/01/14 09:40:41;;;;;;;8.50;3.03;;;;;;;3.62;67.32;100464.50;4959646;28;97207;-57
2024/01/14 09:43:10;;;;;;;8.50;1.87;;;;;;;3.65;66.80;100457.34;4954753;28;97590;-56
2024/01/14 09:45:36;;;;;;;4.17;1.47;;;;;;;3.68;67.07;100459.91;4958793;28;96870;-57
2024/01/14 09:48:02;;;;;;;4.00;1.63;;;;;;;3.69;66.90;100447.72;4954652;28;96696;-56
2024/01/14 09:50:31;;;;;;;5.70;2.07;;;;;;;3.72;66.88;100454.22;4953283;28;97539;-56
2024/01/14 09:52:58;;;;;;;1.40;1.30;;;;;;;3.75;67.13;100448.56;4952240;28;97393;-56
2024/01/14 09:55:24;;;;;;;4.97;1.90;;;;;;;3.80;66.84;100442.44;4951759;28;97628;-56
2024/01/14 09:57:52;;;;;;;5.97;2.00;;;;;;;3.88;66.91;100440.78;4951376;28;97172;-56
2024/01/14 10:00:21;;;;;;;5.67;2.00;;;;;;;3.95;66.88;100443.16;4950350;28;97216;-56
2024/01/14 10:02:47;;;;;;;7.03;2.03;;;;;;;3.95;66.81;100445.88;4949985;28;96730;-56
2024/01/14 10:05:14;;;;;;;5.93;1.90;;;;;;;3.95;67.08;100451.34;4952537;28;96866;-56
2024/01/14 10:07:40;;;;;;;3.80;2.20;;;;;;;3.98;66.92;100435.97;4951222;28;97165;-56
2024/01/14 10:10:08;;;;;;;4.43;2.13;;;;;;;3.99;66.97;100429.28;4952901;28;97116;-56
2024/01/14 10:12:34;;;;;;;5.20;2.40;;;;;;;3.99;67.02;100435.50;4947369;28;97721;-57
2024/01/14 10:15:00;;;;;;;3.83;2.57;;;;;;;3.97;66.65;100427.00;4948870;28;96695;-56
2024/01/14 10:17:26;;;;;;;5.40;2.63;;;;;;;3.98;66.76;100427.75;4946208;28;96730;-56
2024/01/14 10:19:55;;;;;;;7.23;3.43;;;;;;;3.95;66.69;100423.22;4948272;28;97112;-56
2024/01/14 10:22:24;;;;;;;5.07;2.63;;;;;;;3.91;66.96;100417.19;4949488;28;97402;-56
2024/01/14 10:24:53;;;;;;;4.33;2.40;;;;;;;3.93;66.97;100426.44;4950611;28;97704;-56
2024/01/14 10:27:23;;;;;;;7.23;2.60;;;;;;;3.91;66.90;100445.34;4949883;28;97388;-56
2024/01/14 10:29:49;;;;;;;7.87;3.40;;;;;;;3.95;66.73;100421.25;4952205;28;97325;-56
2024/01/14 10:32:15;;;;;;;6.23;3.13;;;;;;;3.96;66.95;100417.31;4953307;28;97212;-56
2024/01/14 10:34:41;;;;;;;5.60;2.90;;;;;;;3.98;66.67;100408.59;4951871;28;96750;-56
2024/01/14 10:37:07;;;;;;;6.20;3.97;;;;;;;4.02;66.89;100395.47;4950984;28;96974;-56
2024/01/14 10:39:33;;;;;;;8.73;3.37;;;;;;;4.07;66.80;100401.03;4952489;28;96616;-56
2024/01/14 10:42:00;;;;;;;5.20;3.20;;;;;;;4.18;67.00;100396.94;4949061;28;97226;-56
2024/01/14 10:44:25;;;;;;;6.47;3.50;;;;;;;4.23;66.75;100393.50;4951821;28;98384;-56
2024/01/14 10:46:53;;;;;;;8.70;2.97;;;;;;;4.29;66.86;100394.34;4958115;28;106244;-56
2024/01/14 10:49:25;;;;;;;8.10;3.57;;;;;;;4.32;66.48;100385.16;4955970;28;97074;-56
2024/01/14 10:52:03;;;;;;;3.47;3.17;;;;;;;4.34;66.45;100377.22;4954399;28;97335;-57
2024/01/14 10:54:45;;;;;;;6.60;3.10;;;;;;;4.34;66.44;100377.97;4951787;28;97752;-56
2024/01/14 10:57:32;;;;;;;7.73;3.17;;;;;;;4.30;66.29;100376.69;4954913;28;96920;-56
2024/01/14 11:00:11;;;;;;;8.17;3.43;;;;;;;4.27;66.48;100363.94;4955168;28;96833;-56
2024/01/14 11:02:37;;;;;;;9.40;3.60;;;;;;;4.26;66.45;100363.19;4953227;28;96931;-56
2024/01/14 11:05:05;;;;;;;8.30;4.03;;;;;;;4.30;66.55;100355.50;4952022;28;97207;-56
2024/01/14 11:07:33;;;;;;;4.17;3.03;;;;;;;4.29;66.43;100358.72;4953529;28;96885;-56
2024/01/14 11:09:59;;;;;;;7.33;3.03;;;;;;;4.29;66.70;100353.25;4953505;28;97068;-56
2024/01/14 11:12:32;;;;;;;5.63;3.40;;;;;;;4.32;66.40;100346.84;4955102;28;97057;-56
2024/01/14 11:15:04;;;;;;;10.50;3.63;;;;;;;4.40;66.46;100339.69;4955235;28;97144;-56
2024/01/14 11:17:32;;;;;;;7.30;4.17;;;;;;;4.40;66.27;100342.44;4953585;28;98169;-56
2024/01/14 11:19:59;;;;;;;3.47;2.70;;;;;;;4.40;66.51;100334.97;4955971;28;98153;-56
2024/01/14 11:22:26;;;;;;;8.57;3.60;;;;;;;4.40;66.23;100332.25;4952146;28;98841;-56
2024/01/14 11:24:51;;;;;;;5.67;3.43;;;;;;;4.41;66.39;100325.50;4955367;28;97307;-56